Time;durP1;ratioP1;P1;durP2;ratioP2;P2;SDS_P1;SDS_P2;PMS_P1;PMS_P2;Temp;Humidity;BMP_temperature;BMP_pressure;BME280_temperature;BME280_humidity;BME280_pressure;Samples;Min_cycle;Max_cycle;Signal;HPM_P1;HPM_P2
2022/06/23 00:00:34;;;;;;;6.25;1.92;;;14.60;99.90;;;;;;5010918;28;20053;-48
2022/06/23 00:03:03;;;;;;;11.23;2.58;;;14.60;99.90;;;;;;5010851;28;20467;-50
2022/06/23 00:05:37;;;;;;;12.73;1.98;;;14.50;99.90;;;;;;5010254;28;20045;-49
2022/06/23 00:08:09;;;;;;;5.38;2.00;;;14.60;99.90;;;;;;5011894;28;20071;-48
2022/06/23 00:10:41;;;;;;;9.65;2.25;;;14.50;99.90;;;;;;5012376;28;20324;-50
2022/06/23 00:13:21;;;;;;;9.82;2.17;;;14.50;99.90;;;;;;5008045;28;20038;-49
2022/06/23 00:15:51;;;;;;;13.02;2.63;;;14.50;99.90;;;;;;4989101;28;20046;-48
2022/06/23 00:18:27;;;;;;;11.27;2.42;;;14.50;99.90;;;;;;5005813;28;20115;-47
2022/06/23 00:20:55;;;;;;;4.60;1.85;;;14.50;99.90;;;;;;5011053;28;20053;-49
2022/06/23 00:23:38;;;;;;;9.63;2.08;;;14.50;99.90;;;;;;5008667;28;20060;-48
2022/06/23 00:26:14;;;;;;;4.15;1.45;;;14.50;99.90;;;;;;5011719;28;20297;-47
2022/06/23 00:28:44;;;;;;;5.93;1.40;;;14.40;99.90;;;;;;5010091;28;20052;-49
2022/06/23 00:31:26;;;;;;;4.38;2.30;;;14.40;99.90;;;;;;5010413;28;20041;-47
2022/06/23 00:33:54;;;;;;;9.95;1.67;;;14.40;99.90;;;;;;5011215;28;20433;-50
2022/06/23 00:36:35;;;;;;;5.30;1.95;;;14.40;99.90;;;;;;4994079;28;20029;-48
2022/06/23 00:39:18;;;;;;;9.10;2.10;;;14.40;99.90;;;;;;5011061;28;20052;-49
2022/06/23 00:41:47;;;;;;;8.95;2.00;;;14.40;99.90;;;;;;5011571;28;20046;-48
2022/06/23 00:44:52;;;;;;;6.40;1.92;;;14.40;99.90;;;;;;5011434;28;20420;-48
2022/06/23 00:47:22;;;;;;;18.30;2.45;;;14.30;99.90;;;;;;5004615;28;20058;-48
2022/06/23 00:50:16;;;;;;;8.13;2.35;;;14.30;99.90;;;;;;5012426;28;20052;-49
2022/06/23 00:53:10;;;;;;;11.93;2.15;;;14.30;99.90;;;;;;5003276;28;20646;-48
2022/06/23 00:56:05;;;;;;;7.88;2.03;;;14.30;99.90;;;;;;5015555;28;20507;-49
2022/06/23 00:58:37;;;;;;;7.40;2.85;;;14.20;99.90;;;;;;5015129;28;20049;-48
2022/06/23 01:01:35;;;;;;;9.88;2.58;;;14.20;99.90;;;;;;5016234;28;20729;-49
2022/06/23 01:04:02;;;;;;;6.88;2.67;;;14.10;99.90;;;;;;5015123;28;20057;-48
2022/06/23 01:06:38;;;;;;;;;;;14.10;99.90;;;;;;5016836;28;20065;-50
2022/06/23 01:09:23;;;;;;;6.57;2.35;;;14.10;99.90;;;;;;5016022;28;20212;-47
2022/06/23 01:12:16;;;;;;;5.25;2.45;;;14.00;99.90;;;;;;5016228;28;20518;-49
2022/06/23 01:14:51;;;;;;;11.25;3.08;;;14.00;99.90;;;;;;5006211;28;20033;-48
2022/06/23 01:17:28;;;;;;;10.57;2.50;;;14.00;99.90;;;;;;5001972;28;20271;-49
2022/06/23 01:19:58;;;;;;;6.45;1.73;;;14.00;99.90;;;;;;5015662;28;20352;-49
2022/06/23 01:22:35;;;;;;;5.88;1.95;;;13.90;99.90;;;;;;5015855;28;20573;-49
2022/06/23 01:25:30;;;;;;;7.47;2.17;;;13.90;99.90;;;;;;5014185;28;20471;-49
2022/06/23 01:28:09;;;;;;;3.90;1.88;;;13.90;99.90;;;;;;5012798;28;20127;-48
2022/06/23 01:30:43;;;;;;;5.15;2.28;;;13.90;99.90;;;;;;5013920;28;20049;-50
2022/06/23 01:33:20;;;;;;;14.27;2.05;;;14.00;99.90;;;;;;5014317;28;20050;-47
2022/06/23 01:36:06;;;;;;;5.50;1.60;;;13.90;99.90;;;;;;5015393;28;20041;-49
2022/06/23 01:38:45;;;;;;;6.97;1.95;;;13.90;99.90;;;;;;4994621;28;20557;-48
2022/06/23 01:41:19;;;;;;;5.65;1.77;;;13.90;99.90;;;;;;4997129;28;20092;-50
2022/06/23 01:43:59;;;;;;;9.60;1.63;;;13.90;99.90;;;;;;5014266;28;20053;-49
2022/06/23 01:46:37;;;;;;;11.05;2.63;;;13.90;99.90;;;;;;5012945;28;20053;-47
2022/06/23 01:49:16;;;;;;;4.95;2.10;;;13.90;99.90;;;;;;4993614;28;20057;-50
2022/06/23 01:51:52;;;;;;;3.55;1.58;;;13.80;99.90;;;;;;4994983;28;20081;-50
2022/06/23 01:54:22;;;;;;;10.07;2.40;;;13.80;99.90;;;;;;4994826;28;20042;-49
2022/06/23 01:57:22;;;;;;;5.63;1.88;;;13.80;99.90;;;;;;4993194;28;20042;-49
2022/06/23 01:59:55;;;;;;;8.52;2.15;;;13.80;99.90;;;;;;4992586;28;20034;-50
2022/06/23 02:02:27;;;;;;;5.97;2.22;;;13.70;99.90;;;;;;4992816;28;20054;-49
2022/06/23 02:05:11;;;;;;;9.38;1.95;;;13.70;99.90;;;;;;4994476;28;20266;-49
2022/06/23 02:07:41;;;;;;;8.18;2.03;;;13.70;99.90;;;;;;4994297;28;20057;-49
2022/06/23 02:10:20;;;;;;;6.15;2.25;;;13.60;99.90;;;;;;4994239;28;20061;-48
2022/06/23 02:12:49;;;;;;;4.85;2.72;;;13.60;99.90;;;;;;4993992;28;20054;-49
2022/06/23 02:15:27;;;;;;;4.53;1.67;;;13.60;99.90;;;;;;4993766;28;20034;-50
2022/06/23 02:18:23;;;;;;;4.90;1.98;;;13.60;99.90;;;;;;4993761;28;20439;-48
2022/06/23 02:21:18;;;;;;;3.17;1.70;;;13.60;99.90;;;;;;4993386;28;20053;-47
2022/06/23 02:23:53;;;;;;;12.85;2.20;;;13.60;99.90;;;;;;4996851;28;20486;-47
2022/06/23 02:26:36;;;;;;;9.80;2.85;;;13.60;99.90;;;;;;5015135;28;20041;-48
2022/06/23 02:29:15;;;;;;;4.13;1.80;;;13.60;99.90;;;;;;5014311;28;20061;-48
2022/06/23 02:31:55;;;;;;;6.15;1.98;;;13.60;99.90;;;;;;5015109;28;20041;-48
2022/06/23 02:34:36;;;;;;;6.57;2.10;;;13.60;99.90;;;;;;5014402;28;20686;-49
2022/06/23 02:37:41;;;;;;;7.53;2.40;;;13.60;99.90;;;;;;5013193;28;20568;-51
2022/06/23 02:40:15;;;;;;;4.88;1.73;;;13.60;99.90;;;;;;5014122;28;20048;-50
2022/06/23 02:42:42;;;;;;;6.88;1.95;;;13.60;99.90;;;;;;5014014;28;20454;-49
2022/06/23 02:45:44;;;;;;;11.07;4.00;;;13.60;99.90;;;;;;5012901;28;20573;-47
2022/06/23 02:48:38;;;;;;;10.52;2.05;;;13.60;99.90;;;;;;5012550;28;20049;-49
2022/06/23 02:51:13;;;;;;;5.60;1.75;;;13.60;99.90;;;;;;5014008;28;20052;-48
2022/06/23 02:53:49;;;;;;;11.27;3.25;;;13.60;99.90;;;;;;5013635;28;20232;-48
2022/06/23 02:56:35;;;;;;;5.00;1.75;;;13.60;99.90;;;;;;5014618;28;20049;-48
2022/06/23 02:59:08;;;;;;;7.45;2.08;;;13.60;99.90;;;;;;5014194;28;20041;-49
2022/06/23 03:01:58;;;;;;;8.13;1.95;;;13.60;99.90;;;;;;5013930;28;20266;-47
2022/06/23 03:04:51;;;;;;;3.58;2.00;;;13.60;99.90;;;;;;5015022;28;20053;-49
2022/06/23 03:07:32;;;;;;;5.30;1.80;;;13.60;99.90;;;;;;5013506;28;20054;-48
2022/06/23 03:10:17;;;;;;;3.08;1.50;;;13.60;99.90;;;;;;5012350;28;20045;-49
2022/06/23 03:12:53;;;;;;;6.32;1.58;;;13.60;99.90;;;;;;5012835;28;20427;-48
2022/06/23 03:15:52;;;;;;;9.88;2.58;;;13.60;99.90;;;;;;5012985;28;20076;-49
2022/06/23 03:18:25;;;;;;;13.00;2.35;;;13.60;99.90;;;;;;5010010;28;20041;-48
2022/06/23 03:21:06;;;;;;;3.72;1.67;;;13.50;99.90;;;;;;4994820;28;20137;-50
2022/06/23 03:23:45;;;;;;;4.90;2.00;;;13.50;99.90;;;;;;4977261;28;20054;-48
2022/06/23 03:26:33;;;;;;;9.85;2.15;;;13.50;99.90;;;;;;5011678;28;20119;-49
2022/06/23 03:29:10;;;;;;;7.45;2.00;;;13.50;99.90;;;;;;4994087;28;20045;-47
2022/06/23 03:31:47;;;;;;;4.05;1.70;;;13.50;99.90;;;;;;4994346;28;20041;-50
2022/06/23 03:34:24;;;;;;;6.17;2.20;;;13.50;99.90;;;;;;5009552;28;20107;-48
2022/06/23 03:36:55;;;;;;;7.00;2.50;;;13.40;99.90;;;;;;5013964;28;20045;-49
2022/06/23 03:43:02;;;;;;;8.32;2.35;;;13.40;99.90;;;;;;5013542;28;20049;-49
2022/06/23 03:45:42;;;;;;;10.15;1.98;;;13.40;99.90;;;;;;5005105;28;20061;-48
2022/06/23 03:48:22;;;;;;;16.38;2.08;;;13.40;99.90;;;;;;5013429;28;20052;-50
2022/06/23 03:50:52;;;;;;;6.55;1.85;;;13.40;99.90;;;;;;5014566;28;20060;-48
2022/06/23 03:53:27;;;;;;;10.80;2.17;;;13.40;99.90;;;;;;5013767;28;20554;-50
2022/06/23 03:56:15;;;;;;;6.50;2.25;;;13.40;99.90;;;;;;5012691;28;20475;-49
2022/06/23 03:58:59;;;;;;;11.52;3.35;;;13.50;99.90;;;;;;5012950;28;20710;-50
2022/06/23 04:01:54;;;;;;;5.45;1.95;;;13.50;99.90;;;;;;5012592;28;20062;-47
2022/06/23 04:04:44;;;;;;;4.03;1.95;;;13.60;99.90;;;;;;5013276;28;20092;-48
2022/06/23 04:07:29;;;;;;;8.60;2.45;;;13.70;99.90;;;;;;5014154;28;20514;-49
2022/06/23 04:10:04;;;;;;;15.05;2.47;;;13.70;99.90;;;;;;5013475;28;20052;-49
2022/06/23 04:12:56;;;;;;;7.40;2.00;;;13.80;99.90;;;;;;5014212;28;20207;-49
2022/06/23 04:15:29;;;;;;;7.22;2.80;;;13.80;99.90;;;;;;5013068;28;20117;-50
2022/06/23 04:18:21;;;;;;;8.52;1.98;;;13.80;99.90;;;;;;5002933;28;20034;-48
2022/06/23 04:20:54;;;;;;;13.68;3.13;;;13.80;99.90;;;;;;4993319;28;20045;-49
2022/06/23 04:23:54;;;;;;;6.43;2.03;;;13.80;99.90;;;;;;4994086;28;20054;-49
2022/06/23 04:26:27;;;;;;;6.20;1.90;;;13.80;99.90;;;;;;5011127;28;20050;-49
2022/06/23 04:29:09;;;;;;;7.65;2.40;;;13.90;99.90;;;;;;5016274;28;20056;-46
2022/06/23 04:31:48;;;;;;;8.80;2.20;;;13.90;99.90;;;;;;5016519;28;20053;-50
2022/06/23 04:34:30;;;;;;;7.03;1.83;;;14.00;99.90;;;;;;5017102;28;20085;-47
2022/06/23 04:36:57;;;;;;;6.03;2.03;;;14.10;99.90;;;;;;5017584;28;20056;-45
2022/06/23 04:39:29;;;;;;;9.88;2.38;;;14.20;99.90;;;;;;5017370;28;20050;-48
2022/06/23 04:42:04;;;;;;;8.30;2.70;;;14.30;99.90;;;;;;5017470;28;20048;-46
2022/06/23 04:44:35;;;;;;;4.22;1.98;;;14.30;99.90;;;;;;5016342;28;20056;-46
2022/06/23 04:47:25;;;;;;;6.32;2.10;;;14.40;99.90;;;;;;5016343;28;20045;-45
2022/06/23 04:50:10;;;;;;;7.20;3.08;;;14.50;99.90;;;;;;5017404;28;20124;-46
2022/06/23 04:52:43;;;;;;;9.10;2.38;;;14.60;99.90;;;;;;5016403;28;20041;-46
2022/06/23 04:55:23;;;;;;;9.65;2.70;;;14.70;99.90;;;;;;5017665;28;20045;-50
2022/06/23 04:57:54;;;;;;;9.88;2.10;;;14.70;99.90;;;;;;5016796;28;20042;-49
2022/06/23 05:00:29;;;;;;;6.90;2.25;;;14.80;99.90;;;;;;5017320;28;20074;-47
2022/06/23 05:02:59;;;;;;;6.30;1.70;;;14.80;99.90;;;;;;5016663;28;20748;-46
2022/06/23 05:05:31;;;;;;;12.93;4.10;;;14.90;99.90;;;;;;5016065;28;20128;-47
2022/06/23 05:07:58;;;;;;;8.27;1.92;;;15.00;99.90;;;;;;5017898;28;20602;-46
2022/06/23 05:10:38;;;;;;;7.60;2.22;;;15.00;99.90;;;;;;5017428;28;20048;-46
2022/06/23 05:13:15;;;;;;;11.90;2.30;;;15.10;99.90;;;;;;5015962;28;20816;-47
2022/06/23 05:16:05;;;;;;;6.20;1.80;;;15.20;99.90;;;;;;5017702;28;20125;-48
2022/06/23 05:18:48;;;;;;;5.70;2.78;;;15.30;99.90;;;;;;5009653;28;20113;-47
2022/06/23 05:21:18;;;;;;;5.47;1.80;;;15.40;99.90;;;;;;4997086;28;20046;-47
2022/06/23 05:23:59;;;;;;;14.38;2.60;;;15.50;99.90;;;;;;4997584;28;20591;-47
2022/06/23 05:26:38;;;;;;;9.00;2.08;;;15.60;99.90;;;;;;5009415;28;20057;-45
2022/06/23 05:29:12;;;;;;;10.60;2.63;;;15.80;99.90;;;;;;5015788;28;20053;-44
2022/06/23 05:31:40;;;;;;;5.80;2.47;;;15.90;99.90;;;;;;5016793;28;20092;-44
2022/06/23 05:34:13;;;;;;;16.67;2.38;;;16.00;99.90;;;;;;5015268;28;20107;-45
2022/06/23 05:37:05;;;;;;;10.35;2.40;;;16.10;99.90;;;;;;5015791;28;20045;-44
2022/06/23 05:39:51;;;;;;;7.85;2.42;;;16.20;99.90;;;;;;5015234;28;20072;-47
2022/06/23 05:42:26;;;;;;;5.82;1.95;;;16.30;99.90;;;;;;5017115;28;20057;-55
2022/06/23 05:45:04;;;;;;;11.73;2.33;;;16.40;99.90;;;;;;5016661;28;20103;-50
2022/06/23 05:47:33;;;;;;;7.43;2.20;;;16.40;99.90;;;;;;5016891;28;20132;-50
2022/06/23 05:50:08;;;;;;;16.67;2.30;;;16.50;99.90;;;;;;5015687;28;20041;-49
2022/06/23 05:52:45;;;;;;;4.93;1.48;;;16.60;99.90;;;;;;5016797;28;20099;-47
2022/06/23 05:55:52;;;;;;;11.73;2.28;;;16.70;99.90;;;;;;5016943;28;20710;-53
2022/06/23 05:58:29;;;;;;;8.88;2.40;;;16.70;99.90;;;;;;5021162;28;20798;-49
2022/06/23 06:01:21;;;;;;;6.18;1.70;;;16.80;99.90;;;;;;5023427;28;20704;-46
2022/06/23 06:04:06;;;;;;;6.32;2.22;;;16.90;99.90;;;;;;4997164;28;20038;-48
2022/06/23 06:06:33;;;;;;;5.80;2.33;;;17.00;99.90;;;;;;5000674;28;20139;-48
2022/06/23 06:11:55;;;;;;;13.48;3.05;;;17.10;99.90;;;;;;5010019;28;20523;-50
2022/06/23 06:14:27;;;;;;;4.75;1.80;;;17.20;99.90;;;;;;5019170;28;20045;-49
2022/06/23 06:16:57;;;;;;;7.25;2.13;;;17.20;99.90;;;;;;5018563;28;20061;-49
2022/06/23 06:19:28;;;;;;;11.38;2.10;;;17.30;99.90;;;;;;5018813;28;20045;-51
2022/06/23 06:22:05;;;;;;;6.35;1.92;;;17.40;99.90;;;;;;5018766;28;20045;-48
2022/06/23 06:24:38;;;;;;;5.32;2.00;;;17.50;99.90;;;;;;5019063;28;20092;-48
2022/06/23 06:27:11;;;;;;;8.45;2.08;;;17.50;99.90;;;;;;5020241;28;20120;-49
2022/06/23 06:29:42;;;;;;;11.93;3.50;;;17.60;99.90;;;;;;5016965;28;20283;-48
2022/06/23 06:32:29;;;;;;;8.27;1.95;;;17.70;99.90;;;;;;5017206;28;20044;-49
2022/06/23 06:35:16;;;;;;;12.20;2.53;;;17.80;99.90;;;;;;5018808;28;20041;-50
2022/06/23 06:37:51;;;;;;;12.43;1.88;;;17.90;99.90;;;;;;5032018;28;20511;-48
2022/06/23 06:40:19;;;;;;;9.93;2.72;;;18.00;99.90;;;;;;5038248;28;20063;-49
2022/06/23 06:42:56;;;;;;;7.45;2.30;;;18.10;99.90;;;;;;5021877;28;20049;-50
2022/06/23 06:45:29;;;;;;;11.93;3.30;;;18.20;99.90;;;;;;5018358;28;20054;-52
2022/06/23 06:47:56;;;;;;;15.75;3.75;;;18.30;99.90;;;;;;5018249;28;20148;-53
2022/06/23 06:50:39;;;;;;;10.68;2.35;;;18.40;99.90;;;;;;5018015;28;20103;-51
2022/06/23 06:53:32;;;;;;;8.48;3.03;;;18.50;99.90;;;;;;5016830;28;20133;-54
2022/06/23 06:56:15;;;;;;;4.57;2.65;;;18.60;99.90;;;;;;5017502;28;20587;-50
2022/06/23 06:58:57;;;;;;;9.52;2.55;;;18.70;99.90;;;;;;5016257;28;20076;-46
2022/06/23 07:01:26;;;;;;;7.07;2.05;;;18.90;99.90;;;;;;5018010;28;20042;-48
2022/06/23 07:03:54;;;;;;;11.48;2.38;;;19.00;99.90;;;;;;5018557;28;20041;-49
2022/06/23 07:06:27;;;;;;;8.70;1.92;;;19.10;99.90;;;;;;5016517;28;20049;-50
2022/06/23 07:09:04;;;;;;;7.65;2.00;;;19.20;99.90;;;;;;5003859;28;20050;-52
2022/06/23 07:11:51;;;;;;;6.18;2.50;;;19.40;99.90;;;;;;4996725;28;20128;-50
2022/06/23 07:14:27;;;;;;;11.60;2.00;;;19.50;99.90;;;;;;4998671;28;20033;-52
2022/06/23 07:17:04;;;;;;;13.25;2.20;;;19.70;99.90;;;;;;5001596;28;20548;-50
2022/06/23 07:19:38;;;;;;;6.40;2.10;;;19.80;99.90;;;;;;5017528;28;20068;-55
2022/06/23 07:22:13;;;;;;;5.30;1.95;;;20.00;99.90;;;;;;5015837;28;20049;-55
2022/06/23 07:25:04;;;;;;;8.75;2.42;;;20.00;99.90;;;;;;5018201;28;20029;-56
2022/06/23 07:27:34;;;;;;;11.30;2.80;;;20.20;99.90;;;;;;5023250;28;20052;-58
2022/06/23 07:30:16;;;;;;;8.98;2.53;;;20.30;99.90;;;;;;5016960;28;20045;-60
2022/06/23 07:32:54;;;;;;;4.00;2.35;;;20.50;99.90;;;;;;5017286;28;20041;-56
2022/06/23 07:35:40;;;;;;;8.60;3.17;;;20.60;99.90;;;;;;5017896;28;20081;-57
2022/06/23 07:38:22;;;;;;;19.15;4.50;;;20.70;99.90;;;;;;5033903;28;20137;-52
2022/06/23 07:41:08;;;;;;;11.52;2.95;;;20.80;99.90;;;;;;5027927;28;20053;-49
2022/06/23 07:43:44;;;;;;;7.75;2.42;;;21.00;99.90;;;;;;5018567;28;20632;-50
2022/06/23 07:46:12;;;;;;;10.48;2.45;;;21.20;99.90;;;;;;5022646;28;20053;-52
2022/06/23 07:48:39;;;;;;;9.95;2.53;;;21.20;99.90;;;;;;5022018;28;20053;-49
2022/06/23 07:51:10;;;;;;;7.53;3.28;;;21.30;99.90;;;;;;5022444;28;20045;-50
2022/06/23 07:53:46;;;;;;;8.73;2.72;;;21.40;99.90;;;;;;5015429;28;20041;-48
2022/06/23 07:56:19;;;;;;;14.88;2.10;;;21.50;99.90;;;;;;5016953;28;20055;-59
2022/06/23 07:58:53;;;;;;;11.75;2.95;;;21.60;99.90;;;;;;5016633;28;20072;-59
2022/06/23 08:01:36;;;;;;;10.90;2.17;;;21.80;99.90;;;;;;5016612;28;20033;-59
2022/06/23 08:04:29;;;;;;;10.55;1.70;;;21.90;99.90;;;;;;5017215;28;20041;-59
2022/06/23 08:06:59;;;;;;;13.85;2.58;;;22.10;99.90;;;;;;5017227;28;20073;-60
2022/06/23 08:09:44;;;;;;;8.93;2.78;;;22.20;99.90;;;;;;5017076;28;20144;-59
2022/06/23 08:18:31;;;;;;;10.43;2.20;;;22.60;99.90;;;;;;5014364;28;20112;-60
2022/06/23 08:21:04;;;;;;;12.68;2.45;;;22.80;99.90;;;;;;5016778;28;20134;-59
2022/06/23 08:23:37;;;;;;;14.23;2.45;;;23.00;99.90;;;;;;5016233;28;20056;-58
2022/06/23 08:26:07;;;;;;;7.35;2.67;;;23.20;99.90;;;;;;5014694;28;20080;-58
2022/06/23 08:28:34;;;;;;;12.48;3.05;;;23.40;99.90;;;;;;5015721;28;20075;-58
2022/06/23 08:31:03;;;;;;;17.45;3.03;;;23.60;99.90;;;;;;5016589;28;20720;-58
2022/06/23 08:33:32;;;;;;;14.90;2.17;;;23.90;99.90;;;;;;5016006;28;20622;-59
2022/06/23 08:36:11;;;;;;;21.40;4.82;;;24.10;99.90;;;;;;5017131;28;20037;-58
2022/06/23 08:38:56;;;;;;;10.93;2.92;;;24.40;99.90;;;;;;5016199;28;20114;-57
2022/06/23 08:41:25;;;;;;;15.68;3.17;;;24.70;99.90;;;;;;5015469;28;20041;-60
2022/06/23 08:44:31;;;;;;;12.70;2.35;;;24.90;99.90;;;;;;5016583;28;20049;-58
2022/06/23 08:47:06;;;;;;;12.07;2.55;;;25.20;99.90;;;;;;5015573;28;20427;-59
2022/06/23 08:49:45;;;;;;;20.40;2.85;;;25.40;99.90;;;;;;5016213;28;20336;-58
2022/06/23 08:52:38;;;;;;;13.02;2.72;;;25.60;99.90;;;;;;5016747;28;20760;-59
2022/06/23 08:55:14;;;;;;;14.15;2.92;;;25.80;99.90;;;;;;4995321;28;20046;-60
2022/06/23 08:58:25;;;;;;;19.83;4.25;;;26.00;99.90;;;;;;4997083;28;20742;-60
2022/06/23 09:01:09;;;;;;;11.40;2.75;;;26.10;99.90;;;;;;4996551;28;20054;-59
2022/06/23 09:03:47;;;;;;;12.63;2.40;;;26.30;99.90;;;;;;5014873;28;20072;-59
2022/06/23 09:06:45;;;;;;;12.45;2.55;;;26.40;99.90;;;;;;5016289;28;20149;-59
2022/06/23 09:09:37;;;;;;;18.98;2.90;;;26.60;99.90;;;;;;5016035;28;20045;-59
2022/06/23 09:12:14;;;;;;;8.63;2.95;;;26.80;99.90;;;;;;5018904;28;20111;-59
2022/06/23 09:14:56;;;;;;;13.02;3.75;;;26.80;99.90;;;;;;5020388;28;20060;-60
2022/06/23 09:18:14;;;;;;;18.83;2.55;;;26.80;99.20;;;;;;5019394;28;20037;-60
2022/06/23 09:21:18;;;;;;;13.48;3.45;;;27.00;97.70;;;;;;5019561;28;20072;-59
2022/06/23 09:24:19;;;;;;;26.58;3.75;;;27.10;95.40;;;;;;5019071;28;20048;-58
2022/06/23 09:27:13;;;;;;;16.02;2.70;;;27.30;96.20;;;;;;5009425;28;20107;-61
2022/06/23 09:29:52;;;;;;;15.18;3.03;;;27.40;96.10;;;;;;5019515;28;20509;-60
2022/06/23 09:32:52;;;;;;;12.93;2.97;;;27.50;97.40;;;;;;5019616;28;20049;-62
2022/06/23 09:35:44;;;;;;;13.75;3.05;;;27.60;96.80;;;;;;5015220;28;20052;-61
2022/06/23 09:38:30;;;;;;;9.52;3.30;;;27.80;92.40;;;;;;5019733;28;20656;-61
2022/06/23 09:41:29;;;;;;;15.95;3.50;;;27.80;96.30;;;;;;5017845;28;20045;-61
2022/06/23 09:44:27;;;;;;;21.30;5.00;;;27.90;94.90;;;;;;5013897;28;20486;-63
2022/06/23 09:47:32;;;;;;;20.63;4.10;;;27.90;93.00;;;;;;5019118;28;20044;-62
2022/06/23 09:50:28;;;;;;;18.08;4.57;;;28.00;93.60;;;;;;5017644;28;20057;-61
2022/06/23 09:52:55;;;;;;;20.35;4.63;;;28.10;95.40;;;;;;5018290;28;20053;-61
2022/06/23 09:55:52;;;;;;;19.20;3.83;;;28.20;91.40;;;;;;5007749;28;20092;-62
2022/06/23 09:58:31;;;;;;;19.85;3.53;;;28.30;90.60;;;;;;4999396;28;20053;-61
2022/06/23 10:01:16;;;;;;;17.45;4.82;;;28.40;88.20;;;;;;4999154;28;20045;-62
2022/06/23 10:03:52;;;;;;;13.73;3.75;;;28.50;85.80;;;;;;4999596;28;20124;-62
2022/06/23 10:06:52;;;;;;;16.38;4.03;;;28.60;87.20;;;;;;4999462;28;20397;-61
2022/06/23 10:09:28;;;;;;;12.85;2.72;;;28.60;88.70;;;;;;4999171;28;20052;-63
2022/06/23 10:12:13;;;;;;;18.48;2.75;;;28.50;91.80;;;;;;4998755;28;20053;-62
2022/06/23 10:14:57;;;;;;;19.88;3.65;;;28.50;82.50;;;;;;4997887;28;20040;-62
2022/06/23 10:17:44;;;;;;;14.25;3.40;;;28.40;81.30;;;;;;5006351;28;20037;-63
2022/06/23 10:21:08;;;;;;;9.77;3.63;;;28.40;87.90;;;;;;5018368;28;20045;-63
2022/06/23 10:24:00;;;;;;;9.25;2.20;;;28.30;79.70;;;;;;4978542;28;20053;-63
2022/06/23 10:26:58;;;;;;;10.25;2.50;;;28.30;83.00;;;;;;4994059;28;20046;-63
2022/06/23 10:29:59;;;;;;;15.05;3.25;;;28.30;86.30;;;;;;5001013;28;20049;-61
2022/06/23 10:33:17;;;;;;;14.63;2.85;;;28.30;90.60;;;;;;4997138;28;20065;-62
2022/06/23 10:36:14;;;;;;;16.48;3.83;;;28.40;81.80;;;;;;4996749;28;20033;-62
2022/06/23 10:39:23;;;;;;;13.77;3.97;;;28.50;82.90;;;;;;4997935;28;20100;-64
2022/06/23 10:42:20;;;;;;;23.52;3.65;;;28.50;75.40;;;;;;5004921;28;20045;-63
2022/06/23 10:45:08;;;;;;;17.98;3.40;;;28.50;79.60;;;;;;5017912;28;20096;-63
2022/06/23 10:48:02;;;;;;;24.25;3.25;;;28.50;73.10;;;;;;5017754;28;20041;-64
2022/06/23 10:51:01;;;;;;;19.52;3.65;;;28.40;77.10;;;;;;5017484;28;20046;-64
2022/06/23 10:53:33;;;;;;;10.98;2.13;;;28.40;76.90;;;;;;5018384;28;20030;-63
2022/06/23 10:56:03;;;;;;;18.23;3.45;;;28.50;76.20;;;;;;5014529;28;20037;-64
2022/06/23 10:58:38;;;;;;;13.60;3.90;;;28.50;73.10;;;;;;5017394;28;20511;-64
2022/06/23 11:01:47;;;;;;;17.00;3.50;;;28.50;72.40;;;;;;5017571;28;20527;-64
2022/06/23 11:04:45;;;;;;;13.60;3.55;;;28.50;73.00;;;;;;5017639;28;20071;-63
2022/06/23 11:07:30;;;;;;;9.70;2.53;;;28.60;70.20;;;;;;5017439;28;20057;-64
2022/06/23 11:10:19;;;;;;;18.00;2.92;;;28.70;73.20;;;;;;5017632;28;20669;-64
2022/06/23 11:13:13;;;;;;;11.27;2.88;;;28.80;69.20;;;;;;4997849;28;20053;-64
2022/06/23 11:15:49;;;;;;;11.23;3.30;;;28.90;66.60;;;;;;5006943;28;20048;-63
2022/06/23 11:18:42;;;;;;;17.48;3.28;;;29.00;65.10;;;;;;5017450;28;20045;-63
2022/06/23 11:21:41;;;;;;;20.17;2.95;;;29.00;68.20;;;;;;5019395;28;20056;-64
2022/06/23 11:24:47;;;;;;;13.93;3.05;;;29.00;66.30;;;;;;5016907;28;20064;-64
2022/06/23 11:27:26;;;;;;;16.35;2.90;;;29.10;64.10;;;;;;5016609;28;20091;-64
2022/06/23 11:30:08;;;;;;;13.13;3.42;;;29.10;67.60;;;;;;5016387;28;20044;-63
2022/06/23 11:32:40;;;;;;;13.68;2.80;;;29.20;65.80;;;;;;5017385;28;20038;-64
2022/06/23 11:35:27;;;;;;;13.48;3.35;;;29.20;66.30;;;;;;5016015;28;20041;-63
2022/06/23 11:38:06;;;;;;;16.23;2.72;;;29.30;61.70;;;;;;5017739;28;20120;-63
2022/06/23 11:40:52;;;;;;;17.58;3.40;;;29.30;60.10;;;;;;5016856;28;20045;-64
2022/06/23 11:43:31;;;;;;;13.15;2.88;;;29.40;58.60;;;;;;4997571;28;20070;-62
2022/06/23 11:46:28;;;;;;;13.93;3.00;;;29.30;57.20;;;;;;4997200;28;20038;-63
2022/06/23 11:49:11;;;;;;;;;;;29.30;61.20;;;;;;5012587;28;20060;-63
2022/06/23 11:52:14;;;;;;;13.48;2.92;;;29.30;58.80;;;;;;5009457;28;19933;-62
2022/06/23 11:55:05;;;;;;;11.77;2.55;;;29.30;58.00;;;;;;5012318;28;20045;-62
2022/06/23 11:57:44;;;;;;;15.52;3.33;;;29.30;58.70;;;;;;4995523;28;20537;-61
2022/06/23 12:00:16;;;;;;;14.45;2.60;;;29.40;58.50;;;;;;5004135;28;20123;-63
2022/06/23 12:03:44;;;;;;;15.88;3.17;;;29.50;57.90;;;;;;5015894;28;20041;-64
2022/06/23 12:06:14;;;;;;;;;;;29.50;56.20;;;;;;5018053;28;20053;-63
2022/06/23 12:09:11;;;;;;;15.77;3.67;;;29.50;56.70;;;;;;5016413;28;19921;-65
2022/06/23 12:11:38;;;;;;;21.77;4.37;;;29.60;57.00;;;;;;5017429;28;20054;-62
2022/06/23 12:14:07;;;;;;;9.60;2.08;;;29.60;57.40;;;;;;5016760;28;20037;-62
2022/06/23 12:16:40;;;;;;;13.43;3.47;;;29.60;56.60;;;;;;5016906;28;20045;-60
2022/06/23 12:19:13;;;;;;;14.43;2.78;;;29.60;57.40;;;;;;5016179;28;20594;-61
2022/06/23 12:21:52;;;;;;;12.07;2.83;;;29.70;58.60;;;;;;5015385;28;20503;-62
2022/06/23 12:24:29;;;;;;;10.98;2.97;;;29.80;57.70;;;;;;5016014;28;20038;-62
2022/06/23 12:27:28;;;;;;;11.15;2.33;;;29.90;58.40;;;;;;5016526;28;20048;-61
2022/06/23 12:30:12;;;;;;;16.73;3.13;;;29.80;58.80;;;;;;5016122;28;20065;-61
2022/06/23 12:32:47;;;;;;;17.45;2.40;;;29.80;58.60;;;;;;5013920;28;20052;-62
2022/06/23 12:35:30;;;;;;;16.92;2.85;;;29.90;58.80;;;;;;5015129;28;20325;-62
2022/06/23 12:38:06;;;;;;;11.52;2.55;;;30.00;58.20;;;;;;5016058;28;20037;-61
2022/06/23 12:40:38;;;;;;;12.30;2.70;;;30.10;58.40;;;;;;5015746;28;20049;-62
2022/06/23 12:43:08;;;;;;;12.32;2.58;;;30.20;57.90;;;;;;5013913;28;20519;-62
2022/06/23 12:46:01;;;;;;;10.23;2.42;;;30.20;58.00;;;;;;5015524;28;20046;-62
2022/06/23 12:48:37;;;;;;;8.80;2.00;;;30.30;57.10;;;;;;5019441;28;20080;-61
2022/06/23 12:51:48;;;;;;;13.43;3.22;;;30.30;57.90;;;;;;5019818;28;20124;-61
2022/06/23 12:54:52;;;;;;;10.40;2.53;;;30.40;55.30;;;;;;5018262;28;20049;-61
2022/06/23 12:57:46;;;;;;;15.57;3.67;;;30.40;54.70;;;;;;5009422;28;20450;-62
2022/06/23 13:00:18;;;;;;;11.95;2.10;;;30.40;55.90;;;;;;4999146;28;20053;-60
2022/06/23 13:02:52;;;;;;;9.15;2.50;;;30.40;55.10;;;;;;4999377;28;20053;-62
2022/06/23 13:05:40;;;;;;;10.88;2.67;;;30.30;56.10;;;;;;5000269;28;20413;-61
2022/06/23 13:08:24;;;;;;;5.78;1.90;;;30.30;55.80;;;;;;4998926;28;20049;-62
2022/06/23 13:10:59;;;;;;;8.98;2.80;;;30.10;56.60;;;;;;5000277;28;20525;-62
2022/06/23 13:13:38;;;;;;;8.90;2.65;;;30.10;56.10;;;;;;4999478;28;20050;-62
2022/06/23 13:16:28;;;;;;;7.45;1.80;;;30.20;56.40;;;;;;4999729;28;20046;-62
2022/06/23 13:19:06;;;;;;;8.10;2.22;;;30.20;58.50;;;;;;4999171;28;20042;-61
2022/06/23 13:21:36;;;;;;;9.52;2.63;;;30.30;56.50;;;;;;4997904;28;20099;-61
2022/06/23 13:24:07;;;;;;;11.18;2.15;;;30.30;56.00;;;;;;4999674;28;20470;-61
2022/06/23 13:26:36;;;;;;;11.43;2.78;;;30.40;55.00;;;;;;5001680;28;20111;-61
2022/06/23 13:29:23;;;;;;;18.85;3.45;;;30.40;55.80;;;;;;5017660;28;20052;-61
2022/06/23 13:32:22;;;;;;;8.50;2.00;;;30.40;56.40;;;;;;5019351;28;20462;-61
2022/06/23 13:35:16;;;;;;;3.47;1.77;;;30.40;55.90;;;;;;5020253;28;20046;-62
2022/06/23 13:38:16;;;;;;;7.80;2.03;;;30.50;56.50;;;;;;5018979;28;20456;-61
2022/06/23 13:41:06;;;;;;;8.45;2.08;;;30.60;53.90;;;;;;5018574;28;20049;-61
2022/06/23 13:43:49;;;;;;;12.45;1.85;;;30.70;53.30;;;;;;4999941;28;20369;-62
2022/06/23 13:46:25;;;;;;;21.77;3.92;;;30.80;53.10;;;;;;5017932;28;20462;-62
2022/06/23 13:49:19;;;;;;;21.00;5.22;;;30.90;52.70;;;;;;4999200;28;20042;-61
2022/06/23 13:52:06;;;;;;;19.75;3.35;;;30.90;53.20;;;;;;4997050;28;20050;-62
2022/06/23 13:54:49;;;;;;;14.02;3.05;;;31.10;53.00;;;;;;5002126;28;20185;-61
2022/06/23 13:57:31;;;;;;;29.17;6.55;;;31.20;52.90;;;;;;5017051;28;20539;-60
2022/06/23 14:00:20;;;;;;;7.40;2.75;;;31.20;50.20;;;;;;4995639;28;20049;-61
2022/06/23 14:03:32;;;;;;;12.30;1.98;;;31.20;50.50;;;;;;4998700;28;20508;-62
2022/06/23 14:06:08;;;;;;;9.02;1.90;;;31.10;50.50;;;;;;4999137;28;20070;-61
2022/06/23 14:08:58;;;;;;;6.55;1.60;;;31.00;51.10;;;;;;4998163;28;20195;-62
2022/06/23 14:11:31;;;;;;;7.40;1.83;;;31.20;52.60;;;;;;4997902;28;20057;-61